createdAt,value
2019-03-09T00:00:38.256Z,7.07
2019-03-09T00:03:08.660Z,7.97
2019-03-09T00:05:40.281Z,7.63
2019-03-09T00:08:10.541Z,7.70
2019-03-09T00:10:42.766Z,8.27
2019-03-09T00:13:13.006Z,8.27
2019-03-09T00:15:41.761Z,10.13
2019-03-09T00:18:11.055Z,10.20
2019-03-09T00:20:41.837Z,12.27
2019-03-09T00:23:12.775Z,5.77
2019-03-09T00:25:47.890Z,10.07
2019-03-09T00:28:19.790Z,8.13
2019-03-09T00:30:51.694Z,10.03
2019-03-09T00:33:22.006Z,8.87
2019-03-09T00:35:51.304Z,7.50
2019-03-09T00:38:21.619Z,7.23
2019-03-09T00:40:51.918Z,9.53
2019-03-09T00:43:23.599Z,7.67
2019-03-09T00:45:53.877Z,9.23
2019-03-09T00:48:23.087Z,8.40
2019-03-09T00:50:55.174Z,10.90
2019-03-09T00:53:26.009Z,8.43
2019-03-09T00:55:55.395Z,7.30
2019-03-09T00:58:26.670Z,9.13
2019-03-09T01:00:56.047Z,7.80
2019-03-09T01:03:24.786Z,11.80
2019-03-09T01:05:59.086Z,10.37
2019-03-09T01:08:28.440Z,6.47
2019-03-09T01:10:58.670Z,8.87
2019-03-09T01:13:30.482Z,9.63
2019-03-09T01:16:01.653Z,7.97
2019-03-09T01:18:33.908Z,9.80
2019-03-09T01:21:06.765Z,6.13
2019-03-09T01:23:38.190Z,8.43
2019-03-09T01:26:08.462Z,9.40
2019-03-09T01:28:38.737Z,7.13
2019-03-09T01:31:08.304Z,8.07
2019-03-09T01:33:40.434Z,6.43
2019-03-09T01:36:11.514Z,9.73
2019-03-09T01:38:40.251Z,7.27
2019-03-09T01:41:11.666Z,8.23
2019-03-09T01:43:43.990Z,11.00
2019-03-09T01:46:15.374Z,7.20
2019-03-09T01:48:45.714Z,8.33
2019-03-09T01:51:17.901Z,7.40
2019-03-09T01:53:47.226Z,9.87
2019-03-09T01:56:19.438Z,7.43
2019-03-09T01:58:49.741Z,8.70
2019-03-09T02:01:23.925Z,7.43
2019-03-09T02:03:52.648Z,9.97
2019-03-09T02:06:21.969Z,8.77
2019-03-09T02:08:51.241Z,8.83
2019-03-09T02:11:20.519Z,9.90
2019-03-09T02:13:50.896Z,10.03
2019-03-09T02:16:20.290Z,10.27
2019-03-09T02:18:51.720Z,9.40
2019-03-09T02:21:23.854Z,8.10
2019-03-09T02:23:53.161Z,7.10
2019-03-09T02:26:23.401Z,16.00
2019-03-09T02:28:53.677Z,6.73
2019-03-09T02:31:22.964Z,9.53
2019-03-09T02:33:52.322Z,8.10
2019-03-09T02:36:22.543Z,11.20
2019-03-09T02:38:54.887Z,10.10
2019-03-09T02:41:24.219Z,8.93
2019-03-09T02:43:57.713Z,7.20
2019-03-09T02:46:27.036Z,7.53
2019-03-09T02:48:57.616Z,14.17
2019-03-09T02:51:26.945Z,10.43
2019-03-09T02:53:58.086Z,7.73
2019-03-09T02:56:28.313Z,11.47
2019-03-09T02:58:58.603Z,9.23
2019-03-09T03:01:39.134Z,9.03
2019-03-09T03:04:08.426Z,11.17
2019-03-09T03:06:38.641Z,9.23
2019-03-09T03:09:09.130Z,9.13
2019-03-09T03:11:38.410Z,9.87
2019-03-09T03:14:07.976Z,10.23
2019-03-09T03:16:37.271Z,10.73
2019-03-09T03:19:06.930Z,9.50
2019-03-09T03:21:36.205Z,8.40
2019-03-09T03:24:08.486Z,6.90
2019-03-09T03:26:40.719Z,12.30
2019-03-09T03:29:12.219Z,8.03
2019-03-09T03:31:42.481Z,7.80
2019-03-09T03:34:12.185Z,10.80
2019-03-09T03:36:41.446Z,6.73
2019-03-09T03:39:11.661Z,7.80
2019-03-09T03:41:40.946Z,8.50
2019-03-09T03:44:11.280Z,9.13
2019-03-09T03:46:41.491Z,9.23
2019-03-09T03:49:10.805Z,10.53
2019-03-09T03:51:39.515Z,7.13
2019-03-09T03:54:08.819Z,8.20
2019-03-09T03:56:40.973Z,8.07
2019-03-09T03:59:11.382Z,12.47
2019-03-09T04:01:40.177Z,8.17
2019-03-09T04:04:10.100Z,7.40
2019-03-09T04:06:39.517Z,10.50
2019-03-09T04:09:09.806Z,10.97
2019-03-09T04:11:40.275Z,8.07
2019-03-09T04:14:10.863Z,7.57
2019-03-09T04:16:40.146Z,10.07
2019-03-09T04:19:10.532Z,9.63
2019-03-09T04:21:39.830Z,9.60
2019-03-09T04:24:10.146Z,7.03
2019-03-09T04:26:40.435Z,7.33
2019-03-09T04:29:10.737Z,5.87
2019-03-09T04:31:40.122Z,9.17
2019-03-09T04:34:10.449Z,7.37
2019-03-09T04:36:40.759Z,7.30
2019-03-09T04:39:12.463Z,7.97
2019-03-09T04:41:44.654Z,6.47
2019-03-09T04:44:14.894Z,8.87
2019-03-09T04:46:45.166Z,7.17
2019-03-09T04:49:15.910Z,11.30
2019-03-09T04:51:48.262Z,9.63
2019-03-09T04:54:17.544Z,9.07
2019-03-09T04:56:47.629Z,8.23
2019-03-09T04:59:16.957Z,9.83
2019-03-09T05:01:48.208Z,8.33
2019-03-09T05:04:30.508Z,7.23
2019-03-09T05:06:59.823Z,11.97
2019-03-09T05:09:54.481Z,9.90
2019-03-09T05:12:23.764Z,8.63
2019-03-09T05:14:54.192Z,12.37
2019-03-09T05:17:24.653Z,9.87
2019-03-09T05:19:53.931Z,9.47
2019-03-09T05:22:23.255Z,9.00
2019-03-09T05:24:52.523Z,11.00
2019-03-09T05:27:22.822Z,11.60
2019-03-09T05:29:53.109Z,8.47
2019-03-09T05:32:22.672Z,8.20
2019-03-09T05:34:51.911Z,8.37
2019-03-09T05:37:21.277Z,8.50
2019-03-09T05:39:50.542Z,7.70
2019-03-09T05:42:19.932Z,6.10
2019-03-09T05:44:51.568Z,9.10
2019-03-09T05:47:22.245Z,8.93
2019-03-09T05:49:54.545Z,7.30
2019-03-09T05:52:31.439Z,8.47
2019-03-09T05:55:01.676Z,9.57
2019-03-09T05:57:32.663Z,7.90
2019-03-09T06:00:01.427Z,7.63
2019-03-09T06:02:31.686Z,6.77
2019-03-09T06:05:00.966Z,10.20
2019-03-09T06:07:31.181Z,6.13
2019-03-09T06:10:01.491Z,6.90
2019-03-09T06:12:31.787Z,9.47
2019-03-09T06:15:02.034Z,6.83
2019-03-09T06:17:31.838Z,7.87
2019-03-09T06:20:01.145Z,4.90
2019-03-09T06:22:31.694Z,6.23
2019-03-09T06:25:02.825Z,7.27
2019-03-09T06:27:32.193Z,10.00
2019-03-09T06:30:02.451Z,9.13
2019-03-09T06:32:35.752Z,7.70
2019-03-09T06:35:09.141Z,6.23
2019-03-09T06:37:38.471Z,9.87
2019-03-09T06:40:10.016Z,10.80
2019-03-09T06:42:45.714Z,5.17
2019-03-09T06:45:16.214Z,4.57
2019-03-09T06:47:46.775Z,4.00
2019-03-09T06:50:18.126Z,6.03
2019-03-09T06:52:47.475Z,5.87
2019-03-09T06:55:17.805Z,4.17
2019-03-09T06:57:48.146Z,4.33
2019-03-09T07:00:26.155Z,2.53
2019-03-09T07:02:56.460Z,6.90
2019-03-09T07:05:26.728Z,6.53
2019-03-09T07:07:57.033Z,8.10
2019-03-09T07:10:26.311Z,6.07
2019-03-09T07:12:55.619Z,3.67
2019-03-09T07:15:27.929Z,8.97
2019-03-09T07:18:00.237Z,3.83
2019-03-09T07:20:30.670Z,5.60
2019-03-09T07:23:00.945Z,4.53
2019-03-09T07:25:30.567Z,5.47
2019-03-09T07:28:09.305Z,3.57
2019-03-09T07:30:39.722Z,6.53
2019-03-09T07:33:09.587Z,6.93
2019-03-09T07:35:39.022Z,2.87
2019-03-09T07:38:07.969Z,4.27
2019-03-09T07:40:38.300Z,1.80
2019-03-09T07:43:07.072Z,4.77
2019-03-09T07:45:37.798Z,5.73
2019-03-09T07:48:08.048Z,3.93
2019-03-09T07:50:38.350Z,3.70
2019-03-09T07:53:07.728Z,3.87
2019-03-09T07:55:39.376Z,3.47
2019-03-09T07:58:08.795Z,2.67
2019-03-09T08:00:38.087Z,5.80
2019-03-09T08:03:08.686Z,3.03
2019-03-09T08:05:40.879Z,3.17
2019-03-09T08:08:11.171Z,4.33
2019-03-09T08:10:41.400Z,2.00
2019-03-09T08:13:10.694Z,1.33
2019-03-09T08:15:40.008Z,2.37
2019-03-09T08:18:10.323Z,3.00
2019-03-09T08:20:42.472Z,2.60
2019-03-09T08:23:11.751Z,3.93
2019-03-09T08:25:41.117Z,4.53
2019-03-09T08:28:11.263Z,6.10
2019-03-09T08:30:40.552Z,4.70
2019-03-09T08:33:10.830Z,4.63
2019-03-09T08:35:41.253Z,2.10
2019-03-09T08:38:10.446Z,7.57
2019-03-09T08:40:42.669Z,2.00
2019-03-09T08:43:12.749Z,2.77
2019-03-09T08:45:43.150Z,3.10
2019-03-09T08:48:13.397Z,4.23
2019-03-09T08:50:42.708Z,3.17
2019-03-09T08:53:11.991Z,5.17
2019-03-09T08:55:43.604Z,3.27
2019-03-09T08:58:12.856Z,4.20
2019-03-09T09:00:42.970Z,4.17
2019-03-09T09:03:13.223Z,2.60
2019-03-09T09:05:43.636Z,1.77
2019-03-09T09:08:13.002Z,3.83
2019-03-09T09:10:43.280Z,2.60
2019-03-09T09:13:13.554Z,3.97
2019-03-09T09:15:43.822Z,2.20
2019-03-09T09:18:14.030Z,3.33
2019-03-09T09:20:44.330Z,4.83
2019-03-09T09:23:13.613Z,2.77
2019-03-09T09:25:43.985Z,4.77
2019-03-09T09:28:15.905Z,2.80
2019-03-09T09:30:46.160Z,2.33
2019-03-09T09:33:14.925Z,3.83
2019-03-09T09:35:45.722Z,4.40
2019-03-09T09:38:16.080Z,1.47
2019-03-09T09:40:46.350Z,2.50
2019-03-09T09:43:15.703Z,5.00
2019-03-09T09:45:46.025Z,1.47
2019-03-09T09:48:16.337Z,3.17
2019-03-09T09:50:47.411Z,2.40
2019-03-09T09:53:19.162Z,2.80
2019-03-09T09:55:50.319Z,3.40
2019-03-09T09:58:20.619Z,3.83
2019-03-09T10:00:51.054Z,3.20
2019-03-09T10:03:20.418Z,2.10
2019-03-09T10:05:51.306Z,3.03
2019-03-09T10:08:22.113Z,1.47
2019-03-09T10:10:51.402Z,3.10
2019-03-09T10:13:20.678Z,1.70
2019-03-09T10:15:49.975Z,2.23
2019-03-09T10:18:21.494Z,1.90
2019-03-09T10:20:50.793Z,5.17
2019-03-09T10:23:21.072Z,1.40
2019-03-09T10:25:49.788Z,1.10
2019-03-09T10:28:20.085Z,1.67
2019-03-09T10:30:49.391Z,3.67
2019-03-09T10:33:18.710Z,1.13
2019-03-09T10:35:47.187Z,2.87
2019-03-09T10:38:17.695Z,1.37
2019-03-09T10:40:46.176Z,4.27
2019-03-09T10:43:14.696Z,2.70
2019-03-09T10:45:43.431Z,1.23
2019-03-09T10:48:11.965Z,2.03
2019-03-09T10:50:42.322Z,1.37
2019-03-09T10:53:12.622Z,2.23
2019-03-09T10:55:43.953Z,3.73
2019-03-09T10:58:14.382Z,2.17
2019-03-09T11:00:46.901Z,2.43
2019-03-09T11:03:16.300Z,1.97
2019-03-09T11:05:45.738Z,2.07
2019-03-09T11:08:19.341Z,1.43
2019-03-09T11:10:49.586Z,1.87
2019-03-09T11:13:20.282Z,2.00
2019-03-09T11:15:50.608Z,1.80
2019-03-09T11:18:20.942Z,1.33
2019-03-09T11:20:50.226Z,2.23
2019-03-09T11:23:20.508Z,2.20
2019-03-09T11:25:49.269Z,0.40
2019-03-09T11:28:20.143Z,0.80
2019-03-09T11:30:49.459Z,1.60
2019-03-09T11:33:20.894Z,3.00
2019-03-09T11:35:51.150Z,0.70
2019-03-09T11:38:21.497Z,3.40
2019-03-09T11:40:57.360Z,1.37
2019-03-09T11:43:25.735Z,1.63
2019-03-09T11:45:56.008Z,2.33
2019-03-09T11:48:26.330Z,2.00
2019-03-09T11:50:55.603Z,1.43
2019-03-09T11:53:27.823Z,1.60
2019-03-09T11:55:58.103Z,0.90
2019-03-09T11:58:28.956Z,2.27
2019-03-09T12:00:59.319Z,2.77
2019-03-09T12:03:29.134Z,1.43
2019-03-09T12:05:59.396Z,1.90
2019-03-09T12:08:28.719Z,1.27
2019-03-09T12:10:58.928Z,2.90
2019-03-09T12:13:28.239Z,4.30
2019-03-09T12:15:59.374Z,5.93
2019-03-09T12:18:28.788Z,1.80
2019-03-09T12:20:59.125Z,1.83
2019-03-09T12:23:28.428Z,1.77
2019-03-09T12:25:57.793Z,2.30
2019-03-09T12:28:28.026Z,3.17
2019-03-09T12:30:59.688Z,0.90
2019-03-09T12:33:29.967Z,1.80
2019-03-09T12:35:58.468Z,1.97
2019-03-09T12:38:29.234Z,0.77
2019-03-09T12:40:59.481Z,1.87
2019-03-09T12:43:28.753Z,1.53
2019-03-09T12:45:59.203Z,1.47
2019-03-09T12:48:29.524Z,2.80
2019-03-09T12:50:59.790Z,1.37
2019-03-09T12:53:30.053Z,6.87
2019-03-09T12:56:00.553Z,3.70
2019-03-09T12:58:29.839Z,2.43
2019-03-09T13:00:59.946Z,2.63
2019-03-09T13:03:28.678Z,2.50
2019-03-09T13:05:58.953Z,5.83
2019-03-09T13:08:28.178Z,4.07
2019-03-09T13:10:58.445Z,2.90
2019-03-09T13:13:28.688Z,0.87
2019-03-09T13:16:02.064Z,6.33
2019-03-09T13:18:33.870Z,7.63
2019-03-09T13:21:05.453Z,3.37
2019-03-09T13:23:35.719Z,2.70
2019-03-09T13:26:06.184Z,1.63
2019-03-09T13:28:35.465Z,1.40
2019-03-09T13:31:07.688Z,1.37
2019-03-09T13:33:37.935Z,1.67
2019-03-09T13:36:09.129Z,5.13
2019-03-09T13:38:38.468Z,1.93
2019-03-09T13:41:08.415Z,2.50
2019-03-09T13:43:37.738Z,2.50
2019-03-09T13:46:07.716Z,0.50
2019-03-09T13:48:36.465Z,1.23
2019-03-09T13:51:05.799Z,1.00
2019-03-09T13:53:34.268Z,1.03
2019-03-09T13:56:03.590Z,1.57
2019-03-09T13:58:33.810Z,0.63
2019-03-09T14:01:05.801Z,1.40
2019-03-09T14:03:35.174Z,0.60
2019-03-09T14:06:06.506Z,0.90
2019-03-09T14:08:36.781Z,2.60
2019-03-09T14:11:06.133Z,0.70
2019-03-09T14:13:34.871Z,2.00
2019-03-09T14:16:04.174Z,1.03
2019-03-09T14:18:34.484Z,0.47
2019-03-09T14:21:06.183Z,1.57
2019-03-09T14:23:36.430Z,0.57
2019-03-09T14:26:05.876Z,1.70
2019-03-09T14:28:35.140Z,2.03
2019-03-09T14:31:06.258Z,0.57
2019-03-09T14:33:35.568Z,0.63
2019-03-09T14:36:05.379Z,1.20
2019-03-09T14:38:37.648Z,3.83
2019-03-09T14:41:07.949Z,4.53
2019-03-09T14:43:37.369Z,1.77
2019-03-09T14:46:06.686Z,0.77
2019-03-09T14:48:36.055Z,2.03
2019-03-09T14:51:08.121Z,2.37
2019-03-09T14:53:40.521Z,2.80
2019-03-09T14:56:10.895Z,0.67
2019-03-09T14:58:40.216Z,2.30
2019-03-09T15:01:10.570Z,1.23
2019-03-09T15:03:41.387Z,1.47
2019-03-09T15:06:11.205Z,1.03
2019-03-09T15:08:40.517Z,1.77
2019-03-09T15:11:09.850Z,0.40
2019-03-09T15:13:40.153Z,2.93
2019-03-09T15:16:09.418Z,1.40
2019-03-09T15:18:43.113Z,3.27
2019-03-09T15:21:13.326Z,3.27
2019-03-09T15:23:43.696Z,2.00
2019-03-09T15:26:13.000Z,0.77
2019-03-09T15:28:43.249Z,0.20
2019-03-09T15:31:13.596Z,1.77
2019-03-09T15:33:43.856Z,0.50
2019-03-09T15:36:13.073Z,2.73
2019-03-09T15:38:43.367Z,0.50
2019-03-09T15:41:13.677Z,0.30
2019-03-09T15:43:42.984Z,0.93
2019-03-09T15:46:13.331Z,0.60
2019-03-09T15:48:42.698Z,0.50
2019-03-09T15:51:12.968Z,1.00
2019-03-09T15:53:44.653Z,1.53
2019-03-09T15:56:14.972Z,1.70
2019-03-09T15:58:44.268Z,0.77
2019-03-09T16:01:13.579Z,0.77
2019-03-09T16:03:43.892Z,1.30
2019-03-09T16:06:13.165Z,2.90
2019-03-09T16:08:45.295Z,0.80
2019-03-09T16:11:14.652Z,2.83
2019-03-09T16:13:46.933Z,0.83
2019-03-09T16:16:16.238Z,1.13
2019-03-09T16:18:46.547Z,1.87
2019-03-09T16:21:15.920Z,1.23
2019-03-09T16:23:46.223Z,3.03
2019-03-09T16:26:16.466Z,0.83
2019-03-09T16:28:46.832Z,0.63
2019-03-09T16:31:16.105Z,2.40
2019-03-09T16:33:45.424Z,0.97
2019-03-09T16:36:15.797Z,2.33
2019-03-09T16:38:47.533Z,1.20
2019-03-09T16:41:19.246Z,1.33
2019-03-09T16:43:49.517Z,1.40
2019-03-09T16:46:19.730Z,2.00
2019-03-09T16:48:49.028Z,2.73
2019-03-09T16:51:19.316Z,2.80
2019-03-09T16:53:49.610Z,1.97
2019-03-09T16:56:18.950Z,1.80
2019-03-09T16:58:48.233Z,2.30
2019-03-09T17:01:18.580Z,1.83
2019-03-09T17:03:48.808Z,2.60
2019-03-09T17:06:18.173Z,1.97
2019-03-09T17:08:50.483Z,2.17
2019-03-09T17:11:20.856Z,1.67
2019-03-09T17:13:50.097Z,3.33
2019-03-09T17:16:21.296Z,1.40
2019-03-09T17:18:50.566Z,1.20
2019-03-09T17:21:19.882Z,3.03
2019-03-09T17:23:50.126Z,4.53
2019-03-09T17:26:20.397Z,2.33
2019-03-09T17:28:50.633Z,2.23
2019-03-09T17:31:20.900Z,1.90
2019-03-09T17:33:51.146Z,3.10
2019-03-09T17:36:21.448Z,1.90
2019-03-09T17:38:51.818Z,2.10
2019-03-09T17:41:21.819Z,1.93
2019-03-09T17:43:52.014Z,2.23
2019-03-09T17:46:22.354Z,2.37
2019-03-09T17:48:51.600Z,4.47
2019-03-09T17:51:20.874Z,3.40
2019-03-09T17:53:51.158Z,1.83
2019-03-09T17:56:21.392Z,6.83
2019-03-09T17:58:50.666Z,2.17
2019-03-09T18:01:19.950Z,1.83
2019-03-09T18:03:50.225Z,2.10
2019-03-09T18:06:20.495Z,1.70
2019-03-09T18:08:49.767Z,2.43
2019-03-09T18:11:21.968Z,0.80
2019-03-09T18:13:52.319Z,1.50
2019-03-09T18:16:22.670Z,2.17
2019-03-09T18:18:54.388Z,1.27
2019-03-09T18:21:23.882Z,1.57
2019-03-09T18:23:54.229Z,4.27
2019-03-09T18:26:23.580Z,1.30
2019-03-09T18:28:52.838Z,1.43
2019-03-09T19:24:02.125Z,7.17
2019-03-09T19:26:32.397Z,3.27
2019-03-09T19:29:01.760Z,2.80
2019-03-09T19:31:31.049Z,4.10
2019-03-09T19:34:00.429Z,8.37
2019-03-09T19:36:29.745Z,6.53
2019-03-09T19:39:00.022Z,3.57
2019-03-09T19:41:30.286Z,4.10
2019-03-09T19:43:59.592Z,4.73
2019-03-09T19:46:28.879Z,4.23
2019-03-09T19:48:58.185Z,4.30
2019-03-09T19:51:30.414Z,3.80
2019-03-09T19:54:00.711Z,3.97
2019-03-09T19:56:30.048Z,4.63
2019-03-09T19:58:59.369Z,4.13
2019-03-09T20:01:28.651Z,5.13
2019-03-09T20:04:00.435Z,3.57
2019-03-09T20:06:29.743Z,3.97
2019-03-09T20:08:59.103Z,3.17
2019-03-09T20:11:28.390Z,7.83
2019-03-09T20:13:57.138Z,5.00
2019-03-09T20:16:29.294Z,4.60
2019-03-09T20:18:59.601Z,3.33
2019-03-09T20:21:28.916Z,4.57
2019-03-09T20:23:59.183Z,4.07
2019-03-09T20:26:29.557Z,2.47
2019-03-09T20:28:58.295Z,3.90
2019-03-09T20:31:27.590Z,6.17
2019-03-09T20:33:57.807Z,6.60
2019-03-09T20:36:28.047Z,5.40
2019-03-09T20:38:58.323Z,9.53
2019-03-09T20:41:27.626Z,4.77
2019-03-09T20:43:59.320Z,3.33
2019-03-09T20:46:28.625Z,4.77
2019-03-09T20:48:58.897Z,3.60
2019-03-09T20:51:28.202Z,3.73
2019-03-09T20:54:00.334Z,5.43
2019-03-09T20:56:30.638Z,5.97
2019-03-09T20:58:59.922Z,7.07
2019-03-09T21:01:29.195Z,7.53
2019-03-09T21:04:01.122Z,6.17
2019-03-09T21:06:31.483Z,8.17
2019-03-09T21:09:01.683Z,7.00
2019-03-09T21:11:30.980Z,7.20
2019-03-09T21:14:00.325Z,7.90
2019-03-09T21:16:29.643Z,7.07
2019-03-09T21:19:01.578Z,7.57
2019-03-09T21:21:30.940Z,6.47
2019-03-09T21:24:01.229Z,12.23
2019-03-09T21:26:30.600Z,5.13
2019-03-09T21:29:02.352Z,15.03
2019-03-09T21:31:31.081Z,6.87
2019-03-09T21:34:02.491Z,7.43
2019-03-09T21:36:31.794Z,8.13
2019-03-09T21:39:04.110Z,7.37
2019-03-09T21:41:34.412Z,8.07
2019-03-09T21:44:03.711Z,8.60
2019-03-09T21:46:33.044Z,8.00
2019-03-09T21:49:03.282Z,7.90
2019-03-09T21:51:35.089Z,8.47
2019-03-09T21:54:05.361Z,8.50
2019-03-09T21:56:36.253Z,7.03
2019-03-09T21:59:08.567Z,8.77
2019-03-09T22:01:38.895Z,7.43
2019-03-09T22:04:09.101Z,9.50
2019-03-09T22:06:41.298Z,8.13
2019-03-09T22:09:10.674Z,10.37
2019-03-09T22:11:41.012Z,6.80
2019-03-09T22:14:09.881Z,9.00
2019-03-09T22:16:40.144Z,5.87
2019-03-09T22:19:10.382Z,6.73
2019-03-09T22:21:39.668Z,6.87
2019-03-09T22:24:09.017Z,10.30
2019-03-09T22:26:39.312Z,6.87
2019-03-09T22:29:09.689Z,12.87
2019-03-09T22:31:39.955Z,10.13
2019-03-09T22:34:10.346Z,8.37
2019-03-09T22:36:39.056Z,8.60
2019-03-09T22:39:09.545Z,9.13
2019-03-09T22:41:39.819Z,8.57
2019-03-09T22:44:10.195Z,12.83
2019-03-09T22:46:40.424Z,10.17
2019-03-09T22:49:10.703Z,7.00
2019-03-09T22:51:42.573Z,13.30
2019-03-09T22:54:12.815Z,11.60
2019-03-09T22:56:44.974Z,8.67
2019-03-09T22:59:15.247Z,9.53
2019-03-09T23:01:45.622Z,12.83
2019-03-09T23:04:15.859Z,11.77
2019-03-09T23:06:46.116Z,8.83
2019-03-09T23:09:15.472Z,9.03
2019-03-09T23:11:45.713Z,10.30
2019-03-09T23:14:15.982Z,9.33
2019-03-09T23:16:46.224Z,9.27
2019-03-09T23:19:18.040Z,11.10
2019-03-09T23:21:48.302Z,11.53
2019-03-09T23:24:20.495Z,11.07
2019-03-09T23:26:52.235Z,16.47
2019-03-09T23:29:21.554Z,8.37
2019-03-09T23:31:50.911Z,11.03
2019-03-09T23:34:21.286Z,11.83
2019-03-09T23:36:50.067Z,7.40
2019-03-09T23:39:19.404Z,7.80
2019-03-09T23:41:48.746Z,10.03
2019-03-09T23:44:18.078Z,8.20
2019-03-09T23:46:47.372Z,7.83
2019-03-09T23:49:17.616Z,9.97
2019-03-09T23:51:47.888Z,10.33
2019-03-09T23:54:20.080Z,6.77
2019-03-09T23:56:50.378Z,7.30
2019-03-09T23:59:19.738Z,9.03
